sensor_id;sensor_type;location;lat;lon;timestamp;temperature;humidity
5196;DHT22;2617;51.006;12.436;2023-02-01T00:04:29;4.70;99.90
5196;DHT22;2617;51.006;12.436;2023-02-01T00:09:31;4.70;99.90
5196;DHT22;2617;51.006;12.436;2023-02-01T00:14:34;4.70;99.90
5196;DHT22;2617;51.006;12.436;2023-02-01T00:19:36;4.60;99.90
5196;DHT22;2617;51.006;12.436;2023-02-01T00:24:38;4.70;99.90
5196;DHT22;2617;51.006;12.436;2023-02-01T00:29:41;4.70;99.90
5196;DHT22;2617;51.006;12.436;2023-02-01T00:34:44;4.60;99.90
5196;DHT22;2617;51.006;12.436;2023-02-01T00:39:47;4.60;99.90
5196;DHT22;2617;51.006;12.436;2023-02-01T00:44:49;4.60;99.90
5196;DHT22;2617;51.006;12.436;2023-02-01T00:49:52;4.60;99.90
5196;DHT22;2617;51.006;12.436;2023-02-01T00:54:54;4.50;99.90
5196;DHT22;2617;51.006;12.436;2023-02-01T00:59:57;4.50;99.90
5196;DHT22;2617;51.006;12.436;2023-02-01T01:05:00;4.40;99.90
5196;DHT22;2617;51.006;12.436;2023-02-01T01:10:03;4.50;99.90
5196;DHT22;2617;51.006;12.436;2023-02-01T01:15:08;4.40;99.90
5196;DHT22;2617;51.006;12.436;2023-02-01T01:20:11;4.40;99.90
5196;DHT22;2617;51.006;12.436;2023-02-01T01:25:14;4.40;99.90
5196;DHT22;2617;51.006;12.436;2023-02-01T01:30:18;4.30;99.90
5196;DHT22;2617;51.006;12.436;2023-02-01T01:35:20;4.40;99.90
5196;DHT22;2617;51.006;12.436;2023-02-01T01:40:23;4.30;99.90
5196;DHT22;2617;51.006;12.436;2023-02-01T01:45:30;4.20;99.90
5196;DHT22;2617;51.006;12.436;2023-02-01T01:50:40;4.20;99.90
5196;DHT22;2617;51.006;12.436;2023-02-01T01:55:44;4.10;99.90
5196;DHT22;2617;51.006;12.436;2023-02-01T02:00:48;4.10;99.90
5196;DHT22;2617;51.006;12.436;2023-02-01T02:05:51;4.10;99.90
5196;DHT22;2617;51.006;12.436;2023-02-01T02:10:53;4.00;99.90
5196;DHT22;2617;51.006;12.436;2023-02-01T02:21:38;4.10;99.90
5196;DHT22;2617;51.006;12.436;2023-02-01T02:27:05;4.10;99.90
5196;DHT22;2617;51.006;12.436;2023-02-01T02:37:38;4.10;99.90
5196;DHT22;2617;51.006;12.436;2023-02-01T02:42:41;4.20;99.90
5196;DHT22;2617;51.006;12.436;2023-02-01T02:47:55;4.20;99.90
5196;DHT22;2617;51.006;12.436;2023-02-01T02:53:04;4.20;99.90
5196;DHT22;2617;51.006;12.436;2023-02-01T02:58:11;4.20;99.90
5196;DHT22;2617;51.006;12.436;2023-02-01T03:03:20;4.30;99.90
5196;DHT22;2617;51.006;12.436;2023-02-01T03:08:29;4.30;99.90
5196;DHT22;2617;51.006;12.436;2023-02-01T03:18:57;4.20;99.90
5196;DHT22;2617;51.006;12.436;2023-02-01T03:24:15;4.20;99.90
5196;DHT22;2617;51.006;12.436;2023-02-01T03:29:19;4.20;99.90
5196;DHT22;2617;51.006;12.436;2023-02-01T03:34:20;4.20;99.90
5196;DHT22;2617;51.006;12.436;2023-02-01T03:39:27;4.30;99.90
5196;DHT22;2617;51.006;12.436;2023-02-01T03:44:32;4.30;99.90
5196;DHT22;2617;51.006;12.436;2023-02-01T03:49:36;4.30;99.90
5196;DHT22;2617;51.006;12.436;2023-02-01T03:54:38;4.30;99.90
5196;DHT22;2617;51.006;12.436;2023-02-01T03:59:41;4.40;99.90
5196;DHT22;2617;51.006;12.436;2023-02-01T04:04:43;4.30;99.90
5196;DHT22;2617;51.006;12.436;2023-02-01T04:09:46;4.30;99.90
5196;DHT22;2617;51.006;12.436;2023-02-01T04:14:48;4.30;99.90
5196;DHT22;2617;51.006;12.436;2023-02-01T04:19:50;4.20;99.90
5196;DHT22;2617;51.006;12.436;2023-02-01T04:24:53;4.20;99.90
5196;DHT22;2617;51.006;12.436;2023-02-01T04:29:55;4.30;99.90
5196;DHT22;2617;51.006;12.436;2023-02-01T04:34:57;4.30;99.90
5196;DHT22;2617;51.006;12.436;2023-02-01T04:40:01;4.30;99.90
5196;DHT22;2617;51.006;12.436;2023-02-01T04:45:03;4.30;99.90
5196;DHT22;2617;51.006;12.436;2023-02-01T04:50:08;4.20;99.90
5196;DHT22;2617;51.006;12.436;2023-02-01T04:55:10;4.20;99.90
5196;DHT22;2617;51.006;12.436;2023-02-01T05:00:13;4.10;99.90
5196;DHT22;2617;51.006;12.436;2023-02-01T05:05:16;4.00;99.90
5196;DHT22;2617;51.006;12.436;2023-02-01T05:10:20;3.90;99.90
5196;DHT22;2617;51.006;12.436;2023-02-01T05:15:22;3.90;99.90
5196;DHT22;2617;51.006;12.436;2023-02-01T05:20:24;3.90;99.90
5196;DHT22;2617;51.006;12.436;2023-02-01T05:25:27;3.80;99.90
5196;DHT22;2617;51.006;12.436;2023-02-01T05:30:29;3.80;99.90
5196;DHT22;2617;51.006;12.436;2023-02-01T05:35:32;4.00;99.90
5196;DHT22;2617;51.006;12.436;2023-02-01T05:40:35;4.00;99.90
5196;DHT22;2617;51.006;12.436;2023-02-01T05:45:37;4.00;99.90
5196;DHT22;2617;51.006;12.436;2023-02-01T05:50:40;4.00;99.90
5196;DHT22;2617;51.006;12.436;2023-02-01T05:55:43;3.90;99.90
5196;DHT22;2617;51.006;12.436;2023-02-01T06:00:45;4.00;99.90
5196;DHT22;2617;51.006;12.436;2023-02-01T06:05:48;4.00;99.90
5196;DHT22;2617;51.006;12.436;2023-02-01T06:10:50;4.00;99.90
5196;DHT22;2617;51.006;12.436;2023-02-01T06:15:53;4.00;99.90
5196;DHT22;2617;51.006;12.436;2023-02-01T06:20:57;4.00;99.90
5196;DHT22;2617;51.006;12.436;2023-02-01T06:25:59;4.00;99.90
5196;DHT22;2617;51.006;12.436;2023-02-01T06:31:04;3.90;99.90
5196;DHT22;2617;51.006;12.436;2023-02-01T06:36:07;3.90;99.90
5196;DHT22;2617;51.006;12.436;2023-02-01T06:41:09;3.90;99.90
5196;DHT22;2617;51.006;12.436;2023-02-01T06:46:12;3.90;99.90
5196;DHT22;2617;51.006;12.436;2023-02-01T06:51:24;3.90;99.90
5196;DHT22;2617;51.006;12.436;2023-02-01T06:56:27;4.00;99.90
5196;DHT22;2617;51.006;12.436;2023-02-01T07:01:29;4.00;99.90
5196;DHT22;2617;51.006;12.436;2023-02-01T07:06:32;4.10;99.90
5196;DHT22;2617;51.006;12.436;2023-02-01T07:11:35;4.10;99.90
5196;DHT22;2617;51.006;12.436;2023-02-01T07:16:37;4.00;99.90
5196;DHT22;2617;51.006;12.436;2023-02-01T07:21:40;4.20;99.90
5196;DHT22;2617;51.006;12.436;2023-02-01T07:26:43;4.20;99.90
5196;DHT22;2617;51.006;12.436;2023-02-01T07:31:45;4.30;99.90
5196;DHT22;2617;51.006;12.436;2023-02-01T07:36:47;4.40;99.90
5196;DHT22;2617;51.006;12.436;2023-02-01T07:41:50;4.50;99.90
5196;DHT22;2617;51.006;12.436;2023-02-01T07:46:53;4.60;99.90
5196;DHT22;2617;51.006;12.436;2023-02-01T07:51:55;4.60;99.90
5196;DHT22;2617;51.006;12.436;2023-02-01T07:56:58;4.70;99.90
5196;DHT22;2617;51.006;12.436;2023-02-01T08:02:00;4.70;99.90
5196;DHT22;2617;51.006;12.436;2023-02-01T08:07:03;4.80;99.90
5196;DHT22;2617;51.006;12.436;2023-02-01T08:12:06;4.90;99.90
5196;DHT22;2617;51.006;12.436;2023-02-01T08:17:08;4.90;99.90
5196;DHT22;2617;51.006;12.436;2023-02-01T08:22:11;5.00;99.90
5196;DHT22;2617;51.006;12.436;2023-02-01T08:27:13;5.00;99.90
5196;DHT22;2617;51.006;12.436;2023-02-01T08:32:15;5.10;99.90
5196;DHT22;2617;51.006;12.436;2023-02-01T08:37:19;5.00;99.90
5196;DHT22;2617;51.006;12.436;2023-02-01T08:42:22;4.90;99.90
5196;DHT22;2617;51.006;12.436;2023-02-01T08:47:30;4.90;99.90
5196;DHT22;2617;51.006;12.436;2023-02-01T08:52:32;4.70;99.90
5196;DHT22;2617;51.006;12.436;2023-02-01T08:57:34;4.50;99.90
5196;DHT22;2617;51.006;12.436;2023-02-01T09:02:37;4.30;99.90
5196;DHT22;2617;51.006;12.436;2023-02-01T09:07:41;4.20;99.90
5196;DHT22;2617;51.006;12.436;2023-02-01T09:12:43;4.20;99.90
5196;DHT22;2617;51.006;12.436;2023-02-01T09:17:46;4.20;99.90
5196;DHT22;2617;51.006;12.436;2023-02-01T09:22:48;4.20;99.90
5196;DHT22;2617;51.006;12.436;2023-02-01T09:27:50;4.40;99.90
5196;DHT22;2617;51.006;12.436;2023-02-01T09:32:54;4.50;99.90
5196;DHT22;2617;51.006;12.436;2023-02-01T09:37:57;4.80;99.90
5196;DHT22;2617;51.006;12.436;2023-02-01T09:48:16;4.90;99.90
5196;DHT22;2617;51.006;12.436;2023-02-01T09:53:30;5.10;99.90
5196;DHT22;2617;51.006;12.436;2023-02-01T09:58:38;5.00;99.90
5196;DHT22;2617;51.006;12.436;2023-02-01T10:03:41;5.00;99.90
5196;DHT22;2617;51.006;12.436;2023-02-01T10:19:42;5.30;99.90
5196;DHT22;2617;51.006;12.436;2023-02-01T10:24:47;5.40;99.90
5196;DHT22;2617;51.006;12.436;2023-02-01T10:30:06;5.40;99.90
5196;DHT22;2617;51.006;12.436;2023-02-01T10:35:17;5.50;99.90
5196;DHT22;2617;51.006;12.436;2023-02-01T10:40:19;6.00;99.90
5196;DHT22;2617;51.006;12.436;2023-02-01T10:45:25;6.20;99.90
5196;DHT22;2617;51.006;12.436;2023-02-01T10:50:48;6.30;99.90
5196;DHT22;2617;51.006;12.436;2023-02-01T10:55:52;6.30;99.90
5196;DHT22;2617;51.006;12.436;2023-02-01T11:01:00;6.50;99.90
5196;DHT22;2617;51.006;12.436;2023-02-01T11:06:21;6.60;99.90
5196;DHT22;2617;51.006;12.436;2023-02-01T11:11:27;6.50;99.90
5196;DHT22;2617;51.006;12.436;2023-02-01T11:16:35;6.50;99.90
5196;DHT22;2617;51.006;12.436;2023-02-01T11:21:37;6.40;99.90
5196;DHT22;2617;51.006;12.436;2023-02-01T11:26:40;6.50;99.90
5196;DHT22;2617;51.006;12.436;2023-02-01T11:31:42;6.40;99.90
5196;DHT22;2617;51.006;12.436;2023-02-01T11:36:45;6.60;99.90
5196;DHT22;2617;51.006;12.436;2023-02-01T11:47:19;7.00;99.90
5196;DHT22;2617;51.006;12.436;2023-02-01T12:14:48;6.80;99.90
5196;DHT22;2617;51.006;12.436;2023-02-01T12:19:56;6.80;99.90
5196;DHT22;2617;51.006;12.436;2023-02-01T12:25:19;6.80;99.90
5196;DHT22;2617;51.006;12.436;2023-02-01T12:30:36;6.90;99.90
5196;DHT22;2617;51.006;12.436;2023-02-01T12:36:09;6.90;99.90
5196;DHT22;2617;51.006;12.436;2023-02-01T12:41:18;7.00;99.90
5196;DHT22;2617;51.006;12.436;2023-02-01T12:46:29;7.10;99.90
5196;DHT22;2617;51.006;12.436;2023-02-01T12:51:36;6.90;99.90
5196;DHT22;2617;51.006;12.436;2023-02-01T12:56:52;6.90;99.90
5196;DHT22;2617;51.006;12.436;2023-02-01T13:01:57;7.00;99.90
5196;DHT22;2617;51.006;12.436;2023-02-01T13:07:04;6.90;99.90
5196;DHT22;2617;51.006;12.436;2023-02-01T13:12:14;6.80;99.90
5196;DHT22;2617;51.006;12.436;2023-02-01T13:17:26;6.80;99.90
5196;DHT22;2617;51.006;12.436;2023-02-01T13:22:32;6.60;99.90
5196;DHT22;2617;51.006;12.436;2023-02-01T13:27:37;6.40;99.90
5196;DHT22;2617;51.006;12.436;2023-02-01T13:32:55;6.30;99.90
5196;DHT22;2617;51.006;12.436;2023-02-01T13:43:33;6.10;99.90
5196;DHT22;2617;51.006;12.436;2023-02-01T13:48:38;6.10;99.90
5196;DHT22;2617;51.006;12.436;2023-02-01T13:53:38;6.10;99.90
5196;DHT22;2617;51.006;12.436;2023-02-01T13:58:42;6.10;99.90
5196;DHT22;2617;51.006;12.436;2023-02-01T14:03:45;6.00;99.90
5196;DHT22;2617;51.006;12.436;2023-02-01T14:09:05;6.00;99.90
5196;DHT22;2617;51.006;12.436;2023-02-01T14:13:50;6.10;99.90
5196;DHT22;2617;51.006;12.436;2023-02-01T14:18:59;6.10;99.90
5196;DHT22;2617;51.006;12.436;2023-02-01T14:24:20;6.10;99.90
5196;DHT22;2617;51.006;12.436;2023-02-01T14:29:24;6.00;99.90
5196;DHT22;2617;51.006;12.436;2023-02-01T14:34:31;6.00;99.90
5196;DHT22;2617;51.006;12.436;2023-02-01T14:39:52;6.00;99.90
5196;DHT22;2617;51.006;12.436;2023-02-01T14:44:57;6.00;99.90
5196;DHT22;2617;51.006;12.436;2023-02-01T14:55:49;6.10;99.90
5196;DHT22;2617;51.006;12.436;2023-02-01T15:01:15;6.10;99.90
5196;DHT22;2617;51.006;12.436;2023-02-01T15:06:26;6.20;99.90
5196;DHT22;2617;51.006;12.436;2023-02-01T15:11:31;6.00;99.90
5196;DHT22;2617;51.006;12.436;2023-02-01T15:16:34;6.00;99.90
5196;DHT22;2617;51.006;12.436;2023-02-01T15:21:43;6.00;99.90
5196;DHT22;2617;51.006;12.436;2023-02-01T15:26:45;6.00;99.90
5196;DHT22;2617;51.006;12.436;2023-02-01T15:31:49;5.90;99.90
5196;DHT22;2617;51.006;12.436;2023-02-01T15:36:51;5.90;99.90
5196;DHT22;2617;51.006;12.436;2023-02-01T15:41:56;5.80;99.90
5196;DHT22;2617;51.006;12.436;2023-02-01T15:46:58;5.90;99.90
5196;DHT22;2617;51.006;12.436;2023-02-01T15:52:01;5.80;99.90
5196;DHT22;2617;51.006;12.436;2023-02-01T15:57:04;5.80;99.90
5196;DHT22;2617;51.006;12.436;2023-02-01T16:02:23;5.80;99.90
5196;DHT22;2617;51.006;12.436;2023-02-01T16:07:21;5.80;99.90
5196;DHT22;2617;51.006;12.436;2023-02-01T16:17:54;5.80;99.90
5196;DHT22;2617;51.006;12.436;2023-02-01T16:22:56;5.80;99.90
5196;DHT22;2617;51.006;12.436;2023-02-01T16:28:00;5.60;99.90
5196;DHT22;2617;51.006;12.436;2023-02-01T16:33:02;5.60;99.90
5196;DHT22;2617;51.006;12.436;2023-02-01T16:38:09;5.00;99.90
5196;DHT22;2617;51.006;12.436;2023-02-01T16:43:13;5.00;99.90
5196;DHT22;2617;51.006;12.436;2023-02-01T16:48:19;2.30;99.90
5196;DHT22;2617;51.006;12.436;2023-02-01T16:53:25;0.80;99.90
5196;DHT22;2617;51.006;12.436;2023-02-01T16:58:27;0.40;99.90
5196;DHT22;2617;51.006;12.436;2023-02-01T17:03:30;0.30;99.90
5196;DHT22;2617;51.006;12.436;2023-02-01T17:08:34;0.30;99.90
5196;DHT22;2617;51.006;12.436;2023-02-01T17:13:35;0.40;99.90
5196;DHT22;2617;51.006;12.436;2023-02-01T17:18:38;0.70;99.90
5196;DHT22;2617;51.006;12.436;2023-02-01T17:23:41;0.70;99.90
5196;DHT22;2617;51.006;12.436;2023-02-01T17:28:44;0.90;99.90
5196;DHT22;2617;51.006;12.436;2023-02-01T17:33:46;0.90;99.90
5196;DHT22;2617;51.006;12.436;2023-02-01T17:38:49;1.00;99.90
5196;DHT22;2617;51.006;12.436;2023-02-01T17:43:51;1.00;99.90
5196;DHT22;2617;51.006;12.436;2023-02-01T17:48:54;0.90;99.90
5196;DHT22;2617;51.006;12.436;2023-02-01T17:53:57;1.00;99.90
5196;DHT22;2617;51.006;12.436;2023-02-01T17:58:59;1.00;99.90
5196;DHT22;2617;51.006;12.436;2023-02-01T18:04:01;1.10;99.90
5196;DHT22;2617;51.006;12.436;2023-02-01T18:09:04;1.20;99.90
5196;DHT22;2617;51.006;12.436;2023-02-01T18:14:08;1.20;99.90
5196;DHT22;2617;51.006;12.436;2023-02-01T18:19:10;1.30;99.90
5196;DHT22;2617;51.006;12.436;2023-02-01T18:24:12;1.20;99.90
5196;DHT22;2617;51.006;12.436;2023-02-01T18:29:14;1.30;99.90
5196;DHT22;2617;51.006;12.436;2023-02-01T18:34:18;1.40;99.90
5196;DHT22;2617;51.006;12.436;2023-02-01T18:39:22;1.40;99.90
5196;DHT22;2617;51.006;12.436;2023-02-01T18:44:24;1.50;99.90
5196;DHT22;2617;51.006;12.436;2023-02-01T18:49:27;1.60;99.90
5196;DHT22;2617;51.006;12.436;2023-02-01T18:54:30;1.50;99.90
5196;DHT22;2617;51.006;12.436;2023-02-01T18:59:33;1.60;99.90
5196;DHT22;2617;51.006;12.436;2023-02-01T19:04:35;1.60;99.90
5196;DHT22;2617;51.006;12.436;2023-02-01T19:09:37;1.60;99.90
5196;DHT22;2617;51.006;12.436;2023-02-01T19:14:40;1.60;99.90
5196;DHT22;2617;51.006;12.436;2023-02-01T19:19:42;1.60;99.90
5196;DHT22;2617;51.006;12.436;2023-02-01T19:24:45;1.60;99.90
5196;DHT22;2617;51.006;12.436;2023-02-01T19:29:47;1.60;99.90
5196;DHT22;2617;51.006;12.436;2023-02-01T19:34:50;1.60;99.90
5196;DHT22;2617;51.006;12.436;2023-02-01T19:39:52;1.70;99.90
5196;DHT22;2617;51.006;12.436;2023-02-01T19:44:54;1.70;99.90
5196;DHT22;2617;51.006;12.436;2023-02-01T19:49:57;1.80;99.90
5196;DHT22;2617;51.006;12.436;2023-02-01T19:54:59;1.80;99.90
5196;DHT22;2617;51.006;12.436;2023-02-01T20:00:03;1.80;99.90
5196;DHT22;2617;51.006;12.436;2023-02-01T20:05:07;1.80;99.90
5196;DHT22;2617;51.006;12.436;2023-02-01T20:10:10;1.80;99.90
5196;DHT22;2617;51.006;12.436;2023-02-01T20:15:12;1.80;99.90
5196;DHT22;2617;51.006;12.436;2023-02-01T20:20:15;1.90;99.90
5196;DHT22;2617;51.006;12.436;2023-02-01T20:25:18;1.90;99.90
5196;DHT22;2617;51.006;12.436;2023-02-01T20:30:20;1.90;99.90
5196;DHT22;2617;51.006;12.436;2023-02-01T20:35:23;2.00;99.90
5196;DHT22;2617;51.006;12.436;2023-02-01T20:40:25;2.00;99.90
5196;DHT22;2617;51.006;12.436;2023-02-01T20:45:28;2.10;99.90
5196;DHT22;2617;51.006;12.436;2023-02-01T20:50:31;2.10;99.90
5196;DHT22;2617;51.006;12.436;2023-02-01T20:55:34;2.10;99.90
5196;DHT22;2617;51.006;12.436;2023-02-01T21:00:36;2.10;99.90
5196;DHT22;2617;51.006;12.436;2023-02-01T21:05:39;2.10;99.90
5196;DHT22;2617;51.006;12.436;2023-02-01T21:10:41;2.10;99.90
5196;DHT22;2617;51.006;12.436;2023-02-01T21:15:44;2.20;99.90
5196;DHT22;2617;51.006;12.436;2023-02-01T21:20:46;2.30;99.90
5196;DHT22;2617;51.006;12.436;2023-02-01T21:25:49;2.40;99.90
5196;DHT22;2617;51.006;12.436;2023-02-01T21:30:51;2.40;99.90
5196;DHT22;2617;51.006;12.436;2023-02-01T21:35:54;2.50;99.90
5196;DHT22;2617;51.006;12.436;2023-02-01T21:40:57;2.50;99.90
5196;DHT22;2617;51.006;12.436;2023-02-01T21:46:05;2.50;99.90
5196;DHT22;2617;51.006;12.436;2023-02-01T21:51:07;2.50;99.90
5196;DHT22;2617;51.006;12.436;2023-02-01T21:56:09;2.60;99.90
5196;DHT22;2617;51.006;12.436;2023-02-01T22:01:12;2.70;99.90
5196;DHT22;2617;51.006;12.436;2023-02-01T22:06:22;2.80;99.90
5196;DHT22;2617;51.006;12.436;2023-02-01T22:11:26;2.80;99.90
5196;DHT22;2617;51.006;12.436;2023-02-01T22:16:28;2.80;99.90
5196;DHT22;2617;51.006;12.436;2023-02-01T22:21:31;2.80;99.90
5196;DHT22;2617;51.006;12.436;2023-02-01T22:26:34;2.80;99.90
5196;DHT22;2617;51.006;12.436;2023-02-01T22:31:37;2.80;99.90
5196;DHT22;2617;51.006;12.436;2023-02-01T22:36:39;2.60;99.90
5196;DHT22;2617;51.006;12.436;2023-02-01T22:41:41;2.60;99.90
5196;DHT22;2617;51.006;12.436;2023-02-01T22:46:44;2.50;99.90
5196;DHT22;2617;51.006;12.436;2023-02-01T22:51:46;2.40;99.90
5196;DHT22;2617;51.006;12.436;2023-02-01T22:56:49;2.30;99.90
5196;DHT22;2617;51.006;12.436;2023-02-01T23:01:52;2.40;99.90
5196;DHT22;2617;51.006;12.436;2023-02-01T23:06:55;2.40;99.90
5196;DHT22;2617;51.006;12.436;2023-02-01T23:11:58;2.40;99.90
5196;DHT22;2617;51.006;12.436;2023-02-01T23:17:00;2.50;99.90
5196;DHT22;2617;51.006;12.436;2023-02-01T23:22:02;2.50;99.90
5196;DHT22;2617;51.006;12.436;2023-02-01T23:27:05;2.60;99.90
5196;DHT22;2617;51.006;12.436;2023-02-01T23:32:08;2.70;99.90
5196;DHT22;2617;51.006;12.436;2023-02-01T23:37:10;2.80;99.90
5196;DHT22;2617;51.006;12.436;2023-02-01T23:42:13;2.80;99.90
5196;DHT22;2617;51.006;12.436;2023-02-01T23:47:15;2.80;99.90
5196;DHT22;2617;51.006;12.436;2023-02-01T23:52:18;2.80;99.90
5196;DHT22;2617;51.006;12.436;2023-02-01T23:57:21;2.80;99.90
